Time;durP1;ratioP1;P1;durP2;ratioP2;P2;SDS_P1;SDS_P2;PMS_P1;PMS_P2;Temp;Humidity;BMP_temperature;BMP_pressure;BME280_temperature;BME280_humidity;BME280_pressure;Samples;Min_cycle;Max_cycle;Signal;HPM_P1;HPM_P2
2020/12/07 00:00:12;;;;;;;11.65;8.18;;;17.20;52.10;;;;;;4981081;28;20185;-59
2020/12/07 00:02:38;;;;;;;12.63;8.50;;;17.20;52.30;;;;;;4978974;28;20264;-59
2020/12/07 00:05:04;;;;;;;10.13;7.82;;;17.20;52.20;;;;;;4981643;28;20649;-59
2020/12/07 00:07:30;;;;;;;10.98;7.60;;;17.20;52.40;;;;;;4981388;28;20248;-59
2020/12/07 00:09:56;;;;;;;10.43;7.82;;;17.10;52.10;;;;;;4980733;28;20224;-59
2020/12/07 00:12:29;;;;;;;12.85;8.13;;;17.10;52.20;;;;;;4981082;28;20203;-59
2020/12/07 00:14:54;;;;;;;11.27;7.63;;;17.10;52.20;;;;;;4979787;28;20216;-59
2020/12/07 00:17:24;;;;;;;11.52;8.10;;;17.10;52.20;;;;;;4980618;28;20178;-59
2020/12/07 00:19:51;;;;;;;9.95;7.70;;;17.10;52.10;;;;;;4981373;28;20197;-59
2020/12/07 00:22:24;;;;;;;10.45;7.53;;;17.10;52.10;;;;;;4981611;28;20301;-59
2020/12/07 00:24:50;;;;;;;11.10;7.43;;;17.10;52.30;;;;;;4980558;28;20209;-59
2020/12/07 00:27:20;;;;;;;10.57;7.68;;;17.10;52.20;;;;;;4981224;28;20194;-59
2020/12/07 00:29:46;;;;;;;10.23;7.50;;;17.00;52.10;;;;;;4980029;28;20294;-59
2020/12/07 00:32:12;;;;;;;10.18;7.60;;;17.00;52.00;;;;;;4981000;28;20610;-59
2020/12/07 00:34:37;;;;;;;9.73;7.47;;;17.00;52.00;;;;;;4980712;28;20201;-59
2020/12/07 00:37:03;;;;;;;9.40;7.07;;;17.00;51.90;;;;;;4980504;28;20925;-59
2020/12/07 00:39:29;;;;;;;9.48;7.43;;;17.00;52.00;;;;;;4980312;28;20596;-59
2020/12/07 00:41:57;;;;;;;10.50;7.20;;;17.00;51.90;;;;;;4979259;28;20190;-59
2020/12/07 00:44:22;;;;;;;9.90;7.15;;;16.90;51.80;;;;;;4980867;28;20260;-59
2020/12/07 00:46:48;;;;;;;10.55;6.90;;;17.00;51.80;;;;;;4979452;28;20221;-59
2020/12/07 00:49:14;;;;;;;11.20;7.70;;;16.90;51.90;;;;;;4978915;28;20193;-59
2020/12/07 00:51:39;;;;;;;9.50;7.25;;;16.90;51.70;;;;;;4979454;28;20198;-59
2020/12/07 00:54:05;;;;;;;11.38;8.10;;;16.90;51.90;;;;;;4979556;28;20686;-59
2020/12/07 00:56:31;;;;;;;9.38;6.55;;;16.90;52.30;;;;;;4978991;28;20267;-59
2020/12/07 00:58:57;;;;;;;10.27;7.40;;;16.90;51.80;;;;;;4978208;28;20193;-59
2020/12/07 01:01:22;;;;;;;10.95;7.60;;;16.80;51.70;;;;;;4978636;28;20195;-59
2020/12/07 01:03:48;;;;;;;9.07;6.75;;;16.80;51.70;;;;;;4980671;28;20717;-59
2020/12/07 01:06:15;;;;;;;9.88;6.80;;;16.80;51.70;;;;;;4978735;28;20208;-59
2020/12/07 01:08:42;;;;;;;12.15;7.65;;;16.80;51.70;;;;;;4978472;28;20200;-59
2020/12/07 01:11:07;;;;;;;10.45;7.60;;;16.80;51.80;;;;;;4979815;28;20196;-59
2020/12/07 01:13:33;;;;;;;9.77;7.28;;;16.80;51.90;;;;;;4980144;28;20205;-59
2020/12/07 01:15:59;;;;;;;9.60;7.05;;;16.80;51.80;;;;;;4980211;28;20338;-59
2020/12/07 01:18:25;;;;;;;11.88;7.22;;;16.80;51.90;;;;;;4978540;28;20660;-60
2020/12/07 01:20:51;;;;;;;8.90;7.00;;;16.80;51.90;;;;;;4979731;28;20660;-59
2020/12/07 01:23:18;;;;;;;9.90;6.95;;;16.70;51.70;;;;;;4969897;28;20240;-59
2020/12/07 01:25:43;;;;;;;10.77;7.27;;;16.70;51.80;;;;;;4980628;28;20272;-58
2020/12/07 01:28:09;;;;;;;9.70;7.15;;;16.70;51.70;;;;;;4978242;28;20190;-59
2020/12/07 01:30:35;;;;;;;10.23;6.77;;;16.70;51.80;;;;;;4979109;28;20932;-59
2020/12/07 01:33:01;;;;;;;10.15;7.28;;;16.70;51.70;;;;;;4980104;28;20308;-59
2020/12/07 01:35:29;;;;;;;9.27;6.55;;;16.70;51.80;;;;;;4979543;28;20206;-59
2020/12/07 01:37:55;;;;;;;10.30;6.50;;;16.70;51.80;;;;;;4977828;28;21094;-59
2020/12/07 01:40:21;;;;;;;9.75;6.25;;;16.70;51.70;;;;;;4980968;28;20185;-59
2020/12/07 01:42:47;;;;;;;9.05;5.88;;;16.70;51.80;;;;;;4983483;28;20540;-59
2020/12/07 01:45:12;;;;;;;10.90;6.00;;;16.60;51.90;;;;;;4983643;28;20266;-58
2020/12/07 01:47:39;;;;;;;11.95;6.05;;;16.70;51.80;;;;;;4981557;28;20193;-59
2020/12/07 01:50:10;;;;;;;8.30;5.15;;;16.60;51.80;;;;;;4981571;28;20743;-59
2020/12/07 01:52:37;;;;;;;9.93;6.00;;;16.60;51.70;;;;;;4981558;28;20191;-59
2020/12/07 01:55:05;;;;;;;9.23;5.78;;;16.60;51.80;;;;;;4981706;28;20248;-59
2020/12/07 01:57:42;;;;;;;13.83;5.97;;;16.60;51.80;;;;;;4982387;28;20200;-59
2020/12/07 02:00:09;;;;;;;11.38;5.72;;;16.60;51.80;;;;;;4969421;28;20185;-59
2020/12/07 02:02:45;;;;;;;9.70;5.60;;;16.50;51.50;;;;;;4983545;28;20903;-59
2020/12/07 02:05:12;;;;;;;10.82;6.72;;;16.50;51.60;;;;;;4981783;28;20197;-59
2020/12/07 02:07:38;;;;;;;10.75;6.28;;;16.50;51.50;;;;;;4981584;28;20193;-59
2020/12/07 02:10:04;;;;;;;9.40;6.20;;;16.50;51.70;;;;;;4980815;28;20263;-59
2020/12/07 02:12:33;;;;;;;8.70;5.90;;;16.50;51.60;;;;;;4981810;28;20224;-59
2020/12/07 02:14:58;;;;;;;9.68;6.45;;;16.50;51.60;;;;;;4981427;28;20205;-59
2020/12/07 02:17:24;;;;;;;10.18;6.40;;;16.50;51.50;;;;;;4981265;28;20196;-59
2020/12/07 02:19:50;;;;;;;8.93;5.88;;;16.50;51.70;;;;;;4982899;28;20212;-59
2020/12/07 02:22:16;;;;;;;7.67;5.73;;;16.50;51.60;;;;;;4980666;28;20609;-59
2020/12/07 02:25:02;;;;;;;9.27;6.50;;;16.50;51.50;;;;;;4978767;28;20198;-59
2020/12/07 02:27:32;;;;;;;8.27;5.97;;;16.50;51.60;;;;;;4981143;28;20295;-59
2020/12/07 02:29:58;;;;;;;10.27;6.75;;;16.50;51.50;;;;;;4980339;28;20221;-59
2020/12/07 02:32:27;;;;;;;11.50;6.72;;;16.50;51.50;;;;;;4982718;28;20284;-59
2020/12/07 02:35:02;;;;;;;9.33;6.37;;;16.40;51.50;;;;;;4980352;28;20275;-59
2020/12/07 02:37:34;;;;;;;9.82;6.13;;;16.40;51.50;;;;;;4980854;28;20575;-59
2020/12/07 02:40:04;;;;;;;7.73;5.87;;;16.40;51.30;;;;;;4980324;28;20243;-59
2020/12/07 02:42:32;;;;;;;9.00;6.13;;;16.50;51.60;;;;;;4981274;28;20211;-59
2020/12/07 02:45:04;;;;;;;7.77;5.20;;;16.50;51.60;;;;;;4980601;28;20192;-59
2020/12/07 02:47:31;;;;;;;10.15;6.03;;;16.50;51.50;;;;;;4980947;28;20676;-59
2020/12/07 02:49:57;;;;;;;10.40;5.53;;;16.40;51.60;;;;;;4981441;28;20186;-59
2020/12/07 02:52:26;;;;;;;9.47;6.10;;;16.40;51.40;;;;;;4979043;28;20192;-59
2020/12/07 02:54:57;;;;;;;8.52;5.90;;;16.40;51.40;;;;;;4965072;28;20210;-58
2020/12/07 02:57:26;;;;;;;10.07;5.90;;;16.50;51.50;;;;;;4972936;28;20271;-59
2020/12/07 02:59:53;;;;;;;9.55;5.82;;;16.50;51.50;;;;;;4979788;28;20192;-58
2020/12/07 03:02:19;;;;;;;11.23;6.28;;;16.50;51.50;;;;;;4980714;28;20199;-59
2020/12/07 03:04:48;;;;;;;9.27;6.20;;;16.50;51.50;;;;;;4980893;28;20270;-59
2020/12/07 03:07:15;;;;;;;8.82;6.28;;;16.40;51.50;;;;;;4968995;28;20198;-59
2020/12/07 03:09:45;;;;;;;10.07;5.73;;;16.40;51.50;;;;;;4991422;28;20196;-59
2020/12/07 03:12:12;;;;;;;10.97;6.47;;;16.40;51.40;;;;;;4980036;28;20204;-59
2020/12/07 03:14:38;;;;;;;9.97;6.43;;;16.40;51.40;;;;;;4979478;28;20228;-59
2020/12/07 03:17:04;;;;;;;11.20;6.47;;;16.40;51.30;;;;;;4982222;28;20799;-58
2020/12/07 03:19:30;;;;;;;9.73;5.72;;;16.40;51.40;;;;;;4981031;28;20203;-59
2020/12/07 03:21:56;;;;;;;9.33;5.93;;;16.50;51.50;;;;;;4980973;28;20186;-59
2020/12/07 03:24:22;;;;;;;10.27;5.97;;;16.40;51.40;;;;;;4981969;28;20232;-59
2020/12/07 03:26:50;;;;;;;11.70;6.53;;;16.40;51.40;;;;;;4981431;28;20204;-59
2020/12/07 03:29:21;;;;;;;10.37;5.87;;;16.40;51.30;;;;;;4981143;28;20201;-59
2020/12/07 03:31:48;;;;;;;11.27;6.33;;;16.40;51.20;;;;;;4981735;28;20415;-59
2020/12/07 03:34:15;;;;;;;11.00;6.10;;;16.50;51.30;;;;;;4981450;28;20220;-58
2020/12/07 03:36:43;;;;;;;10.27;6.32;;;16.40;51.20;;;;;;4980631;28;20332;-59
2020/12/07 03:39:09;;;;;;;11.55;6.80;;;16.40;51.20;;;;;;4979763;28;20219;-57
2020/12/07 03:41:39;;;;;;;11.17;6.77;;;16.40;51.40;;;;;;4980406;28;20284;-59
2020/12/07 03:44:06;;;;;;;10.07;6.57;;;16.40;51.30;;;;;;4979189;28;20216;-58
2020/12/07 03:46:35;;;;;;;11.38;7.53;;;16.40;51.50;;;;;;4979717;28;20277;-59
2020/12/07 03:49:01;;;;;;;11.53;6.67;;;16.40;51.30;;;;;;4979318;28;20221;-59
2020/12/07 03:51:27;;;;;;;12.57;6.07;;;16.40;51.30;;;;;;4975477;28;20189;-58
2020/12/07 03:53:53;;;;;;;12.10;6.87;;;16.40;51.30;;;;;;4979074;28;20233;-59
2020/12/07 03:56:19;;;;;;;9.00;6.00;;;16.40;51.30;;;;;;4980352;28;20224;-59
2020/12/07 03:58:45;;;;;;;10.03;6.63;;;16.30;51.30;;;;;;4964478;28;20727;-59
2020/12/07 04:01:14;;;;;;;10.27;6.70;;;16.40;51.30;;;;;;4995677;28;20757;-59
2020/12/07 04:03:48;;;;;;;9.67;6.50;;;16.40;51.20;;;;;;4979887;28;20328;-59
2020/12/07 04:06:40;;;;;;;10.83;6.57;;;16.40;51.30;;;;;;4980422;28;20247;-59
2020/12/07 04:09:05;;;;;;;10.27;7.00;;;16.40;51.20;;;;;;4979908;28;20192;-59
2020/12/07 04:11:30;;;;;;;10.30;6.83;;;16.30;51.20;;;;;;4982265;28;20211;-59
2020/12/07 04:13:56;;;;;;;9.07;6.67;;;16.40;51.30;;;;;;4981641;28;20229;-59
2020/12/07 04:16:26;;;;;;;10.13;7.10;;;16.40;51.30;;;;;;4982140;28;20207;-59
2020/12/07 04:18:52;;;;;;;9.97;7.17;;;16.30;51.30;;;;;;4981581;28;20192;-59
2020/12/07 04:21:18;;;;;;;11.97;7.27;;;16.30;51.20;;;;;;4980763;28;20565;-59
2020/12/07 04:23:43;;;;;;;11.87;6.77;;;16.30;51.10;;;;;;4981655;28;20260;-59
2020/12/07 04:26:09;;;;;;;10.90;6.97;;;16.30;51.30;;;;;;4981539;28;20637;-59
2020/12/07 04:28:35;;;;;;;10.70;6.00;;;16.30;51.20;;;;;;4980889;28;20197;-59
2020/12/07 04:31:00;;;;;;;12.27;6.77;;;16.30;51.30;;;;;;4980850;28;20196;-59
2020/12/07 04:33:26;;;;;;;11.07;6.38;;;16.30;51.20;;;;;;4979410;28;20886;-59
2020/12/07 04:35:52;;;;;;;10.43;6.32;;;16.30;51.20;;;;;;4980821;28;20314;-59
2020/12/07 04:38:18;;;;;;;10.57;6.67;;;16.30;51.40;;;;;;4972680;28;20193;-59
2020/12/07 04:40:43;;;;;;;9.73;6.35;;;16.30;51.30;;;;;;4980714;28;20251;-59
2020/12/07 04:43:09;;;;;;;12.90;6.40;;;16.30;51.50;;;;;;4979712;28;20208;-59
2020/12/07 04:45:35;;;;;;;10.97;6.77;;;16.30;51.40;;;;;;4980765;28;20679;-59
2020/12/07 04:48:01;;;;;;;9.70;6.63;;;16.30;51.60;;;;;;4980767;28;20188;-59
2020/12/07 04:50:30;;;;;;;10.73;6.33;;;16.30;51.50;;;;;;4979681;28;20755;-59
2020/12/07 04:52:57;;;;;;;10.10;6.33;;;16.30;51.70;;;;;;4980338;28;20313;-59
2020/12/07 04:55:23;;;;;;;12.57;6.93;;;16.30;51.80;;;;;;4980483;28;20324;-59
2020/12/07 04:57:49;;;;;;;10.60;6.70;;;16.30;51.80;;;;;;4980760;28;20196;-60
2020/12/07 05:00:15;;;;;;;10.07;6.53;;;16.20;51.80;;;;;;4959622;28;20659;-59
2020/12/07 05:02:41;;;;;;;12.60;6.73;;;16.20;51.80;;;;;;4975573;28;20228;-59
2020/12/07 05:05:07;;;;;;;10.73;6.43;;;16.30;51.70;;;;;;4980355;28;20184;-59
2020/12/07 05:07:34;;;;;;;11.63;7.07;;;16.20;51.70;;;;;;4980227;28;20187;-59
2020/12/07 05:10:08;;;;;;;11.53;7.27;;;16.30;51.80;;;;;;4980217;28;20227;-59
2020/12/07 05:12:42;;;;;;;11.13;7.17;;;16.30;51.70;;;;;;4979648;28;20978;-59
2020/12/07 05:15:11;;;;;;;10.17;6.73;;;16.20;51.70;;;;;;4982199;28;20232;-59
2020/12/07 05:17:38;;;;;;;11.10;6.07;;;16.20;51.50;;;;;;4984543;28;20459;-60
2020/12/07 05:20:06;;;;;;;12.70;6.60;;;16.20;51.90;;;;;;4983122;28;20331;-59
2020/12/07 05:22:34;;;;;;;10.53;6.77;;;16.20;52.10;;;;;;4969617;28;20208;-59
2020/12/07 05:25:05;;;;;;;11.25;6.68;;;16.30;52.70;;;;;;4981971;28;20181;-59
2020/12/07 05:27:32;;;;;;;11.33;7.20;;;16.30;52.10;;;;;;4984086;28;20245;-66
2020/12/07 05:30:07;;;;;;;16.40;8.47;;;16.30;52.00;;;;;;4983550;28;20187;-59
2020/12/07 05:32:37;;;;;;;12.73;7.23;;;16.40;52.50;;;;;;4984339;28;20188;-60
2020/12/07 05:35:05;;;;;;;16.53;9.10;;;16.40;53.70;;;;;;4980563;28;20197;-60
2020/12/07 05:37:35;;;;;;;18.77;11.90;;;16.40;53.60;;;;;;4987340;28;20180;-59
2020/12/07 05:40:13;;;;;;;22.37;13.60;;;16.40;53.40;;;;;;4984321;28;20223;-58
2020/12/07 05:42:42;;;;;;;32.30;21.67;;;16.40;53.10;;;;;;4984419;28;20235;-59
2020/12/07 05:45:10;;;;;;;34.73;23.13;;;16.40;52.90;;;;;;4981207;28;20177;-58
2020/12/07 05:47:38;;;;;;;39.57;25.27;;;16.40;52.30;;;;;;4978667;28;20188;-66
2020/12/07 05:50:07;;;;;;;30.73;21.27;;;16.30;52.10;;;;;;4985782;28;20186;-59
2020/12/07 05:52:52;;;;;;;30.43;21.97;;;16.40;52.40;;;;;;4984825;28;20192;-59
2020/12/07 05:55:19;;;;;;;32.23;20.27;;;16.40;53.00;;;;;;4975355;28;20207;-59
2020/12/07 05:58:04;;;;;;;36.60;21.43;;;16.40;53.00;;;;;;4984315;28;20533;-59
2020/12/07 06:00:35;;;;;;;31.90;21.20;;;16.40;53.10;;;;;;4983219;28;20252;-59
2020/12/07 06:03:02;;;;;;;29.83;18.60;;;16.50;52.80;;;;;;4983824;28;20213;-59
2020/12/07 06:05:28;;;;;;;30.60;18.70;;;16.50;52.90;;;;;;4982281;28;20196;-59
2020/12/07 06:08:05;;;;;;;31.10;19.43;;;16.50;53.60;;;;;;4983009;28;20543;-65
2020/12/07 06:10:36;;;;;;;31.35;19.83;;;16.60;52.40;;;;;;4983203;28;20229;-59
2020/12/07 06:13:06;;;;;;;28.55;17.67;;;16.50;53.80;;;;;;4982721;28;20355;-59
2020/12/07 06:15:32;;;;;;;29.43;18.17;;;16.60;53.00;;;;;;4982324;28;20316;-59
2020/12/07 06:17:58;;;;;;;28.88;17.85;;;16.60;53.10;;;;;;4982731;28;21063;-59
2020/12/07 06:20:32;;;;;;;29.60;17.63;;;16.60;53.40;;;;;;4982842;28;20190;-59
2020/12/07 06:23:00;;;;;;;27.48;17.23;;;16.70;53.40;;;;;;4983076;28;20210;-59
2020/12/07 06:25:33;;;;;;;28.98;18.60;;;16.70;53.30;;;;;;4982808;28;20204;-59
2020/12/07 06:28:01;;;;;;;30.55;19.15;;;16.80;52.60;;;;;;4983274;28;20198;-60
2020/12/07 06:30:37;;;;;;;28.30;18.73;;;16.80;52.60;;;;;;4981856;28;20199;-60
2020/12/07 06:33:08;;;;;;;31.20;19.97;;;16.80;51.30;;;;;;4981308;28;20298;-59
2020/12/07 06:35:43;;;;;;;27.75;17.50;;;16.80;52.40;;;;;;4980704;28;20208;-59
2020/12/07 06:38:09;;;;;;;27.98;16.30;;;16.90;52.40;;;;;;4982991;28;20181;-59
2020/12/07 06:40:36;;;;;;;28.10;18.80;;;16.80;51.80;;;;;;4982905;28;20732;-59
2020/12/07 06:43:21;;;;;;;29.40;18.50;;;16.80;52.60;;;;;;4982417;28;20752;-60
2020/12/07 06:45:47;;;;;;;27.38;19.63;;;16.90;52.40;;;;;;4982700;28;20224;-60
2020/12/07 06:48:16;;;;;;;28.13;18.08;;;16.90;52.60;;;;;;4982341;28;20594;-60
2020/12/07 06:50:44;;;;;;;27.23;18.77;;;16.90;53.50;;;;;;4982412;28;20198;-60
2020/12/07 06:53:21;;;;;;;25.50;17.23;;;16.80;53.30;;;;;;4982243;28;20276;-60
2020/12/07 06:55:46;;;;;;;27.67;18.23;;;16.80;52.70;;;;;;4982438;28;20232;-59
2020/12/07 06:58:38;;;;;;;27.63;18.45;;;16.80;52.80;;;;;;4982648;28;20202;-60
2020/12/07 07:01:22;;;;;;;23.63;15.50;;;16.80;52.30;;;;;;4981948;28;20186;-60
2020/12/07 07:03:52;;;;;;;23.90;15.73;;;16.80;50.90;;;;;;4982565;28;20235;-60
2020/12/07 07:06:21;;;;;;;25.48;15.80;;;16.80;51.80;;;;;;4981706;28;20247;-60
2020/12/07 07:08:48;;;;;;;23.45;14.75;;;16.80;51.60;;;;;;4982803;28;20576;-60
2020/12/07 07:11:14;;;;;;;24.30;15.37;;;16.70;51.30;;;;;;4981421;28;20200;-60
2020/12/07 07:13:44;;;;;;;23.43;16.73;;;16.70;51.70;;;;;;4981924;28;20228;-60
2020/12/07 07:16:11;;;;;;;22.98;15.57;;;16.70;51.90;;;;;;4980686;28;20217;-59
2020/12/07 07:18:37;;;;;;;23.13;14.60;;;16.70;52.00;;;;;;4981820;28;20187;-60
2020/12/07 07:21:03;;;;;;;21.17;15.40;;;16.70;52.00;;;;;;4979587;28;20192;-61
2020/12/07 07:23:30;;;;;;;21.57;15.10;;;16.70;52.20;;;;;;4981886;28;20205;-59
2020/12/07 07:26:12;;;;;;;21.83;15.73;;;16.70;53.30;;;;;;4981987;28;20197;-60
2020/12/07 07:28:38;;;;;;;22.17;14.80;;;16.80;52.80;;;;;;4982178;28;20232;-59
2020/12/07 07:31:05;;;;;;;22.33;15.45;;;16.80;52.60;;;;;;4981416;28;20192;-60
2020/12/07 07:33:31;;;;;;;23.02;16.10;;;16.80;52.50;;;;;;4981985;28;20243;-59
2020/12/07 07:35:57;;;;;;;24.48;16.25;;;16.80;51.80;;;;;;4981293;28;20883;-60
2020/12/07 07:38:34;;;;;;;27.10;16.98;;;16.80;51.70;;;;;;4978763;28;20195;-60
2020/12/07 07:41:00;;;;;;;25.13;17.05;;;16.80;51.80;;;;;;4982019;28;20319;-60
2020/12/07 07:43:27;;;;;;;23.35;16.45;;;16.80;51.80;;;;;;4983298;28;20220;-60
2020/12/07 07:45:58;;;;;;;24.55;16.85;;;16.80;51.90;;;;;;4983725;28;20202;-60
2020/12/07 07:48:34;;;;;;;29.40;17.48;;;16.80;52.60;;;;;;4983755;28;20197;-68
2020/12/07 08:16:16;;;;;;;19.38;11.00;;;16.60;51.90;;;;;;4980002;28;20209;-59
2020/12/07 08:18:43;;;;;;;21.58;10.05;;;16.70;52.10;;;;;;4980252;28;20218;-59
2020/12/07 08:21:09;;;;;;;17.70;10.30;;;16.70;51.90;;;;;;4980224;28;20967;-65
2020/12/07 08:23:36;;;;;;;15.15;10.57;;;16.70;51.60;;;;;;4980719;28;20215;-65
2020/12/07 08:26:03;;;;;;;17.33;10.45;;;16.80;51.40;;;;;;4980831;28;20719;-60
2020/12/07 08:28:39;;;;;;;17.05;10.13;;;16.70;52.00;;;;;;4979205;28;20201;-60
2020/12/07 08:31:13;;;;;;;19.52;11.40;;;16.70;51.30;;;;;;4981312;28;20287;-60
2020/12/07 08:33:52;;;;;;;19.93;11.27;;;16.70;51.50;;;;;;4981874;28;21018;-60
2020/12/07 08:36:17;;;;;;;21.10;11.15;;;16.70;51.00;;;;;;4973283;28;20236;-60
2020/12/07 08:38:45;;;;;;;18.42;10.95;;;16.70;50.90;;;;;;4981953;28;20197;-60
2020/12/07 08:41:14;;;;;;;20.02;12.93;;;16.70;50.90;;;;;;4981566;28;21039;-61
2020/12/07 08:43:42;;;;;;;24.03;14.53;;;16.80;50.90;;;;;;4981881;28;20317;-60
2020/12/07 08:46:09;;;;;;;21.88;12.55;;;16.80;51.30;;;;;;4982037;28;20193;-61
2020/12/07 08:48:36;;;;;;;22.23;13.18;;;16.80;51.00;;;;;;4981229;28;20193;-60
2020/12/07 08:51:02;;;;;;;21.53;13.50;;;16.90;51.10;;;;;;4980534;28;20208;-60
2020/12/07 08:53:28;;;;;;;22.05;13.10;;;16.90;51.30;;;;;;4981453;28;20248;-61
2020/12/07 08:55:53;;;;;;;22.58;12.70;;;16.90;52.50;;;;;;4981338;28;20300;-61
2020/12/07 08:58:19;;;;;;;20.02;11.27;;;16.90;51.90;;;;;;4980993;28;20274;-63
2020/12/07 09:00:45;;;;;;;19.33;12.02;;;16.90;52.20;;;;;;4981206;28;20200;-59
2020/12/07 09:03:10;;;;;;;19.55;13.43;;;16.90;53.20;;;;;;4981970;28;20214;-60
2020/12/07 09:05:38;;;;;;;23.38;13.88;;;17.00;52.20;;;;;;4980942;28;20188;-59
2020/12/07 09:08:05;;;;;;;22.55;14.05;;;17.00;51.40;;;;;;4981765;28;20562;-59
2020/12/07 09:10:30;;;;;;;19.20;13.25;;;17.00;51.60;;;;;;4980730;28;20677;-59
2020/12/07 09:12:56;;;;;;;19.25;13.40;;;17.00;51.30;;;;;;4980871;28;20223;-59
2020/12/07 09:15:22;;;;;;;21.33;15.32;;;17.00;51.30;;;;;;4981369;28;20205;-60
2020/12/07 09:17:47;;;;;;;19.98;14.50;;;17.00;51.20;;;;;;4980746;28;20251;-60
2020/12/07 09:20:13;;;;;;;23.23;16.15;;;17.00;50.20;;;;;;4980083;28;20564;-61
2020/12/07 09:22:39;;;;;;;25.23;16.25;;;16.90;51.20;;;;;;4980467;28;20649;-60
2020/12/07 09:25:05;;;;;;;27.33;15.90;;;17.00;51.70;;;;;;4981053;28;20189;-60
2020/12/07 09:27:30;;;;;;;23.45;15.13;;;17.00;51.50;;;;;;4980766;28;20685;-65
2020/12/07 09:29:56;;;;;;;20.83;13.57;;;16.90;49.20;;;;;;4970450;28;20721;-65
2020/12/07 09:32:22;;;;;;;20.73;12.95;;;16.70;49.00;;;;;;4979423;28;20185;-65
2020/12/07 09:34:47;;;;;;;19.80;12.73;;;16.40;49.30;;;;;;4976903;28;20216;-59
2020/12/07 09:37:13;;;;;;;21.75;13.07;;;16.50;51.40;;;;;;4980578;28;20220;-59
2020/12/07 09:39:39;;;;;;;18.27;12.90;;;16.60;52.10;;;;;;4979661;28;20300;-59
2020/12/07 09:42:04;;;;;;;22.80;11.98;;;16.70;52.70;;;;;;4980106;28;20194;-59
2020/12/07 09:44:30;;;;;;;15.75;11.55;;;16.80;51.80;;;;;;4980806;28;20225;-59
2020/12/07 09:46:56;;;;;;;22.80;12.32;;;16.90;51.80;;;;;;4980193;28;20192;-59
2020/12/07 09:49:22;;;;;;;16.20;11.57;;;16.90;51.80;;;;;;4980000;28;20205;-59
2020/12/07 09:51:48;;;;;;;17.02;11.30;;;16.90;51.60;;;;;;4977982;28;20197;-59
2020/12/07 09:54:15;;;;;;;18.15;11.57;;;16.90;52.00;;;;;;4979887;28;20217;-59
2020/12/07 09:56:40;;;;;;;17.20;11.30;;;16.90;52.00;;;;;;4974202;28;20214;-59
2020/12/07 09:59:06;;;;;;;16.50;10.95;;;17.00;51.80;;;;;;4978887;28;20186;-59
2020/12/07 10:01:32;;;;;;;16.27;11.38;;;17.00;51.40;;;;;;4982653;28;20715;-59
2020/12/07 10:03:58;;;;;;;17.42;10.77;;;17.00;51.30;;;;;;4983991;28;20216;-59
2020/12/07 10:06:24;;;;;;;19.80;11.38;;;17.00;51.10;;;;;;4984465;28;20775;-59
2020/12/07 10:08:49;;;;;;;16.85;10.50;;;17.10;51.20;;;;;;4984564;28;20665;-59
2020/12/07 10:11:15;;;;;;;15.98;10.57;;;17.10;50.90;;;;;;4983495;28;20678;-59
2020/12/07 10:13:43;;;;;;;16.45;11.23;;;17.10;50.80;;;;;;4976040;28;20222;-59
2020/12/07 10:16:10;;;;;;;14.60;10.00;;;17.10;50.90;;;;;;4998346;28;20228;-59
2020/12/07 10:18:36;;;;;;;19.25;11.45;;;17.10;50.80;;;;;;4984061;28;20642;-58
2020/12/07 10:21:01;;;;;;;17.20;10.65;;;17.10;51.00;;;;;;4983966;28;20268;-59
2020/12/07 10:23:27;;;;;;;18.48;10.57;;;17.10;50.60;;;;;;4983578;28;20305;-59
2020/12/07 10:25:53;;;;;;;20.77;10.65;;;17.10;51.00;;;;;;4983287;28;20754;-64
2020/12/07 10:28:19;;;;;;;17.27;11.23;;;17.10;50.80;;;;;;4983810;28;20298;-66
2020/12/07 10:30:45;;;;;;;19.65;12.43;;;17.00;49.90;;;;;;4982282;28;20190;-59
2020/12/07 10:33:11;;;;;;;21.48;12.35;;;17.00;50.90;;;;;;4982647;28;20219;-59
2020/12/07 10:35:37;;;;;;;23.63;12.63;;;17.00;51.60;;;;;;4982010;28;20760;-59
2020/12/07 10:38:03;;;;;;;23.33;11.88;;;17.00;52.00;;;;;;4982120;28;20181;-59
2020/12/07 10:40:30;;;;;;;17.75;11.05;;;17.00;52.60;;;;;;4982105;28;20193;-59
2020/12/07 10:42:57;;;;;;;18.75;9.55;;;17.00;52.80;;;;;;4982189;28;20644;-59
2020/12/07 10:45:22;;;;;;;15.68;9.80;;;17.00;52.80;;;;;;4982957;28;20610;-59
2020/12/07 10:47:50;;;;;;;16.80;10.27;;;17.00;52.60;;;;;;4982021;28;20216;-59
2020/12/07 10:50:17;;;;;;;28.85;11.15;;;17.00;52.20;;;;;;4981667;28;20243;-59
2020/12/07 10:52:43;;;;;;;15.75;9.80;;;17.10;52.10;;;;;;4981958;28;20189;-59
2020/12/07 10:55:09;;;;;;;19.35;10.38;;;17.10;51.90;;;;;;4980145;28;20174;-59
2020/12/07 10:57:34;;;;;;;16.80;10.10;;;17.10;51.50;;;;;;4981971;28;20248;-59
2020/12/07 11:00:00;;;;;;;15.68;9.18;;;17.10;51.90;;;;;;4981927;28;20195;-59
2020/12/07 11:02:29;;;;;;;15.60;9.77;;;17.10;51.70;;;;;;4980924;28;20704;-59
2020/12/07 11:04:54;;;;;;;16.58;10.63;;;17.10;51.70;;;;;;4983367;28;20213;-59
2020/12/07 11:07:21;;;;;;;19.02;13.00;;;17.10;51.60;;;;;;4982416;28;20196;-72
2020/12/07 11:09:47;;;;;;;19.58;12.38;;;17.20;51.30;;;;;;4982092;28;20297;-65
2020/12/07 11:12:19;;;;;;;20.58;13.38;;;17.20;51.50;;;;;;4980902;28;20186;-63
2020/12/07 11:14:44;;;;;;;19.35;13.63;;;17.10;52.70;;;;;;4982215;28;20320;-63
2020/12/07 11:17:10;;;;;;;19.90;12.95;;;17.20;53.50;;;;;;4980553;28;20222;-63
2020/12/07 11:19:36;;;;;;;21.90;13.05;;;17.20;54.10;;;;;;4981582;28;20273;-63
2020/12/07 11:22:02;;;;;;;23.45;13.40;;;17.20;54.80;;;;;;4982300;28;20182;-64
2020/12/07 11:24:28;;;;;;;25.73;13.30;;;17.20;53.90;;;;;;4982205;28;20704;-64
2020/12/07 11:26:53;;;;;;;18.25;12.52;;;17.20;52.70;;;;;;4980706;28;20185;-73
2020/12/07 11:29:19;;;;;;;20.92;13.25;;;17.20;53.60;;;;;;4981511;28;20248;-69
2020/12/07 11:31:49;;;;;;;16.48;12.15;;;17.20;53.20;;;;;;4979259;28;20292;-69
2020/12/07 11:34:21;;;;;;;17.05;12.10;;;17.30;52.70;;;;;;4972021;28;20282;-69
2020/12/07 11:36:50;;;;;;;19.70;12.90;;;17.30;52.20;;;;;;4952882;28;20217;-63
2020/12/07 11:39:30;;;;;;;18.95;12.98;;;17.30;52.10;;;;;;4972758;28;20778;-66
2020/12/07 11:44:40;;;;;;;22.27;13.20;;;17.40;52.50;;;;;;4980847;28;20221;-60
2020/12/07 11:47:08;;;;;;;20.70;12.30;;;17.40;52.60;;;;;;4980359;28;20194;-60
2020/12/07 11:49:34;;;;;;;21.60;13.02;;;17.40;52.50;;;;;;4979991;28;20193;-67
2020/12/07 11:52:03;;;;;;;30.08;13.00;;;17.50;52.40;;;;;;4980297;28;20271;-60
2020/12/07 11:54:29;;;;;;;19.00;12.50;;;17.50;52.90;;;;;;4979801;28;20259;-61
2020/12/07 11:56:55;;;;;;;22.23;12.65;;;17.50;52.60;;;;;;4980675;28;20209;-61
2020/12/07 11:59:21;;;;;;;23.52;12.77;;;17.50;52.60;;;;;;4980398;28;20193;-61
2020/12/07 12:01:47;;;;;;;22.83;13.07;;;17.60;52.50;;;;;;4979767;28;20201;-61
2020/12/07 12:04:12;;;;;;;18.60;12.77;;;17.50;52.60;;;;;;4980020;28;20205;-60
2020/12/07 12:06:38;;;;;;;17.38;12.38;;;17.60;53.00;;;;;;4980115;28;20193;-61
2020/12/07 12:09:10;;;;;;;18.10;12.63;;;17.60;52.50;;;;;;4979772;28;20195;-61
2020/12/07 12:11:37;;;;;;;16.23;11.88;;;17.60;52.60;;;;;;4979400;28;20198;-61
2020/12/07 12:14:07;;;;;;;17.92;11.50;;;17.70;52.50;;;;;;4979811;28;20229;-61
2020/12/07 12:16:34;;;;;;;15.40;11.82;;;17.60;52.20;;;;;;4981830;28;20219;-61
2020/12/07 12:19:00;;;;;;;16.55;11.43;;;17.70;52.30;;;;;;4981946;28;20193;-61
2020/12/07 12:21:28;;;;;;;17.38;11.70;;;17.70;52.60;;;;;;4983425;28;20188;-63
2020/12/07 12:23:54;;;;;;;16.65;11.25;;;17.70;52.00;;;;;;4982456;28;20252;-61
2020/12/07 12:26:21;;;;;;;15.75;10.52;;;17.70;51.50;;;;;;4981016;28;20661;-61
2020/12/07 12:28:48;;;;;;;19.13;10.43;;;17.70;51.20;;;;;;4982767;28;20816;-64
2020/12/07 12:31:14;;;;;;;18.67;9.98;;;17.70;51.00;;;;;;4980828;28;20211;-65
2020/12/07 12:33:42;;;;;;;22.85;10.00;;;17.70;50.90;;;;;;4981471;28;20217;-65
2020/12/07 12:36:11;;;;;;;16.30;10.18;;;17.80;50.70;;;;;;4982167;28;20252;-65
2020/12/07 12:38:37;;;;;;;16.38;9.65;;;17.80;50.40;;;;;;4980093;28;20275;-65
2020/12/07 12:41:02;;;;;;;13.05;9.63;;;17.80;50.50;;;;;;4979740;28;20193;-64
2020/12/07 12:43:28;;;;;;;13.07;9.25;;;17.80;50.50;;;;;;4979513;28;20272;-65
2020/12/07 12:45:54;;;;;;;11.35;8.50;;;17.90;50.30;;;;;;4979336;28;20198;-65
2020/12/07 12:48:20;;;;;;;13.30;8.40;;;17.80;50.00;;;;;;4979287;28;20371;-69
2020/12/07 12:50:45;;;;;;;10.25;8.23;;;17.80;50.00;;;;;;4978447;28;20236;-66
2020/12/07 12:53:11;;;;;;;11.90;7.80;;;17.90;50.30;;;;;;4978633;28;20879;-64
2020/12/07 12:55:37;;;;;;;15.05;7.57;;;17.90;50.10;;;;;;4978578;28;20213;-71
2020/12/07 12:58:02;;;;;;;12.40;7.57;;;17.90;50.20;;;;;;4979302;28;20657;-65
2020/12/07 13:00:28;;;;;;;12.27;7.00;;;17.90;49.80;;;;;;4979459;28;20272;-67
2020/12/07 13:02:54;;;;;;;17.23;7.60;;;17.90;49.60;;;;;;4979279;28;20292;-65